sensor_id;sensor_type;location;lat;lon;timestamp;P1;durP1;ratioP1;P2;durP2;ratioP2
3997;SDS011;61314;53.444;9.902;2022-09-21T00:00:27;7.35;;;1.83;;
3997;SDS011;61314;53.444;9.902;2022-09-21T00:02:55;14.20;;;2.35;;
3997;SDS011;61314;53.444;9.902;2022-09-21T00:05:23;5.60;;;1.77;;
3997;SDS011;61314;53.444;9.902;2022-09-21T00:07:50;6.65;;;2.05;;
3997;SDS011;61314;53.444;9.902;2022-09-21T00:10:17;4.05;;;1.90;;
3997;SDS011;61314;53.444;9.902;2022-09-21T00:12:45;6.25;;;2.28;;
3997;SDS011;61314;53.444;9.902;2022-09-21T00:15:13;6.75;;;2.03;;
3997;SDS011;61314;53.444;9.902;2022-09-21T00:17:45;6.50;;;1.95;;
3997;SDS011;61314;53.444;9.902;2022-09-21T00:20:13;6.97;;;2.30;;
3997;SDS011;61314;53.444;9.902;2022-09-21T00:22:40;2.25;;;1.80;;
3997;SDS011;61314;53.444;9.902;2022-09-21T00:25:08;6.10;;;2.10;;
3997;SDS011;61314;53.444;9.902;2022-09-21T00:27:35;8.80;;;2.90;;
3997;SDS011;61314;53.444;9.902;2022-09-21T00:30:05;5.93;;;2.30;;
3997;SDS011;61314;53.444;9.902;2022-09-21T00:32:33;2.83;;;1.80;;
3997;SDS011;61314;53.444;9.902;2022-09-21T00:35:01;7.20;;;1.85;;
3997;SDS011;61314;53.444;9.902;2022-09-21T00:37:28;4.55;;;2.38;;
3997;SDS011;61314;53.444;9.902;2022-09-21T00:39:55;3.70;;;2.10;;
3997;SDS011;61314;53.444;9.902;2022-09-21T00:42:27;3.72;;;2.25;;
3997;SDS011;61314;53.444;9.902;2022-09-21T00:44:54;3.70;;;2.05;;
3997;SDS011;61314;53.444;9.902;2022-09-21T00:47:22;4.80;;;1.90;;
3997;SDS011;61314;53.444;9.902;2022-09-21T00:49:52;6.78;;;1.95;;
3997;SDS011;61314;53.444;9.902;2022-09-21T00:52:21;3.60;;;2.30;;
3997;SDS011;61314;53.444;9.902;2022-09-21T00:54:50;8.60;;;2.00;;
3997;SDS011;61314;53.444;9.902;2022-09-21T00:57:18;9.32;;;2.33;;
3997;SDS011;61314;53.444;9.902;2022-09-21T00:59:47;5.97;;;2.45;;
3997;SDS011;61314;53.444;9.902;2022-09-21T01:02:16;5.05;;;1.95;;
3997;SDS011;61314;53.444;9.902;2022-09-21T01:04:43;5.63;;;2.22;;
3997;SDS011;61314;53.444;9.902;2022-09-21T01:07:12;9.02;;;2.72;;
3997;SDS011;61314;53.444;9.902;2022-09-21T01:09:42;8.68;;;2.17;;
3997;SDS011;61314;53.444;9.902;2022-09-21T01:12:22;2.70;;;1.75;;
3997;SDS011;61314;53.444;9.902;2022-09-21T01:14:56;2.92;;;1.92;;
3997;SDS011;61314;53.444;9.902;2022-09-21T01:20:06;2.63;;;1.73;;
3997;SDS011;61314;53.444;9.902;2022-09-21T01:22:56;3.75;;;1.88;;
3997;SDS011;61314;53.444;9.902;2022-09-21T01:25:39;7.63;;;2.40;;
3997;SDS011;61314;53.444;9.902;2022-09-21T01:28:14;2.35;;;1.60;;
3997;SDS011;61314;53.444;9.902;2022-09-21T01:30:46;3.88;;;1.80;;
3997;SDS011;61314;53.444;9.902;2022-09-21T01:33:22;8.65;;;1.77;;
3997;SDS011;61314;53.444;9.902;2022-09-21T01:35:55;6.38;;;2.70;;
3997;SDS011;61314;53.444;9.902;2022-09-21T01:38:24;4.63;;;2.00;;
3997;SDS011;61314;53.444;9.902;2022-09-21T01:40:54;2.45;;;2.20;;
3997;SDS011;61314;53.444;9.902;2022-09-21T01:43:25;4.97;;;2.45;;
3997;SDS011;61314;53.444;9.902;2022-09-21T01:45:53;3.92;;;1.75;;
3997;SDS011;61314;53.444;9.902;2022-09-21T01:48:22;5.78;;;2.35;;
3997;SDS011;61314;53.444;9.902;2022-09-21T01:50:51;4.40;;;2.40;;
3997;SDS011;61314;53.444;9.902;2022-09-21T01:53:21;3.20;;;2.40;;
3997;SDS011;61314;53.444;9.902;2022-09-21T01:55:50;5.38;;;2.72;;
3997;SDS011;61314;53.444;9.902;2022-09-21T01:58:23;11.32;;;2.92;;
3997;SDS011;61314;53.444;9.902;2022-09-21T02:00:53;7.70;;;2.60;;
3997;SDS011;61314;53.444;9.902;2022-09-21T02:03:26;4.32;;;2.22;;
3997;SDS011;61314;53.444;9.902;2022-09-21T02:05:55;7.93;;;3.05;;
3997;SDS011;61314;53.444;9.902;2022-09-21T02:08:22;8.40;;;2.50;;
3997;SDS011;61314;53.444;9.902;2022-09-21T02:10:52;7.43;;;2.13;;
3997;SDS011;61314;53.444;9.902;2022-09-21T02:13:20;3.13;;;2.20;;
3997;SDS011;61314;53.444;9.902;2022-09-21T02:18:48;4.97;;;2.03;;
3997;SDS011;61314;53.444;9.902;2022-09-21T02:21:30;7.63;;;2.60;;
3997;SDS011;61314;53.444;9.902;2022-09-21T02:24:03;3.85;;;2.70;;
3997;SDS011;61314;53.444;9.902;2022-09-21T02:26:39;6.90;;;2.45;;
3997;SDS011;61314;53.444;9.902;2022-09-21T02:29:13;6.80;;;2.88;;
3997;SDS011;61314;53.444;9.902;2022-09-21T02:36:48;7.88;;;1.83;;
3997;SDS011;61314;53.444;9.902;2022-09-21T02:39:20;2.13;;;1.92;;
3997;SDS011;61314;53.444;9.902;2022-09-21T02:42:23;4.63;;;2.05;;
3997;SDS011;61314;53.444;9.902;2022-09-21T02:44:45;6.68;;;2.90;;
3997;SDS011;61314;53.444;9.902;2022-09-21T02:47:15;7.22;;;2.80;;
3997;SDS011;61314;53.444;9.902;2022-09-21T02:49:48;14.15;;;3.75;;
3997;SDS011;61314;53.444;9.902;2022-09-21T02:52:18;3.58;;;2.72;;
3997;SDS011;61314;53.444;9.902;2022-09-21T02:54:49;4.20;;;2.90;;
3997;SDS011;61314;53.444;9.902;2022-09-21T02:57:18;4.45;;;2.33;;
3997;SDS011;61314;53.444;9.902;2022-09-21T02:59:46;5.60;;;2.72;;
3997;SDS011;61314;53.444;9.902;2022-09-21T03:02:13;5.97;;;2.17;;
3997;SDS011;61314;53.444;9.902;2022-09-21T03:04:40;6.45;;;3.00;;
3997;SDS011;61314;53.444;9.902;2022-09-21T03:07:09;9.27;;;3.15;;
3997;SDS011;61314;53.444;9.902;2022-09-21T03:09:36;7.07;;;3.33;;
3997;SDS011;61314;53.444;9.902;2022-09-21T03:12:03;3.28;;;3.08;;
3997;SDS011;61314;53.444;9.902;2022-09-21T03:14:30;10.30;;;4.55;;
3997;SDS011;61314;53.444;9.902;2022-09-21T03:16:58;6.95;;;3.35;;
3997;SDS011;61314;53.444;9.902;2022-09-21T03:19:25;3.78;;;3.00;;
3997;SDS011;61314;53.444;9.902;2022-09-21T03:21:54;9.85;;;4.47;;
3997;SDS011;61314;53.444;9.902;2022-09-21T03:24:21;6.38;;;3.65;;
3997;SDS011;61314;53.444;9.902;2022-09-21T03:27:07;5.22;;;2.80;;
3997;SDS011;61314;53.444;9.902;2022-09-21T03:29:34;5.25;;;2.88;;
3997;SDS011;61314;53.444;9.902;2022-09-21T03:32:02;4.28;;;3.15;;
3997;SDS011;61314;53.444;9.902;2022-09-21T03:34:29;4.10;;;2.35;;
3997;SDS011;61314;53.444;9.902;2022-09-21T03:36:59;7.50;;;4.25;;
3997;SDS011;61314;53.444;9.902;2022-09-21T03:39:26;8.82;;;4.28;;
3997;SDS011;61314;53.444;9.902;2022-09-21T03:41:53;9.15;;;3.72;;
3997;SDS011;61314;53.444;9.902;2022-09-21T03:44:24;5.15;;;3.55;;
3997;SDS011;61314;53.444;9.902;2022-09-21T03:46:52;5.68;;;3.22;;
3997;SDS011;61314;53.444;9.902;2022-09-21T03:49:19;7.93;;;3.38;;
3997;SDS011;61314;53.444;9.902;2022-09-21T03:51:46;6.47;;;3.63;;
3997;SDS011;61314;53.444;9.902;2022-09-21T03:54:14;8.23;;;4.40;;
3997;SDS011;61314;53.444;9.902;2022-09-21T03:56:40;6.28;;;4.18;;
3997;SDS011;61314;53.444;9.902;2022-09-21T03:59:07;3.83;;;3.53;;
3997;SDS011;61314;53.444;9.902;2022-09-21T04:01:39;10.10;;;4.05;;
3997;SDS011;61314;53.444;9.902;2022-09-21T04:04:06;10.48;;;4.15;;
3997;SDS011;61314;53.444;9.902;2022-09-21T04:06:34;7.18;;;3.60;;
3997;SDS011;61314;53.444;9.902;2022-09-21T04:09:01;3.97;;;3.67;;
3997;SDS011;61314;53.444;9.902;2022-09-21T04:11:28;8.57;;;3.85;;
3997;SDS011;61314;53.444;9.902;2022-09-21T04:13:58;5.43;;;4.25;;
3997;SDS011;61314;53.444;9.902;2022-09-21T04:16:25;4.30;;;3.60;;
3997;SDS011;61314;53.444;9.902;2022-09-21T04:18:52;6.13;;;4.47;;
3997;SDS011;61314;53.444;9.902;2022-09-21T04:21:19;6.05;;;3.65;;
3997;SDS011;61314;53.444;9.902;2022-09-21T04:23:47;5.47;;;4.68;;
3997;SDS011;61314;53.444;9.902;2022-09-21T04:26:19;5.18;;;4.45;;
3997;SDS011;61314;53.444;9.902;2022-09-21T04:28:46;9.68;;;4.80;;
3997;SDS011;61314;53.444;9.902;2022-09-21T04:31:13;7.40;;;4.90;;
3997;SDS011;61314;53.444;9.902;2022-09-21T04:33:41;7.28;;;5.60;;
3997;SDS011;61314;53.444;9.902;2022-09-21T04:36:08;12.82;;;6.00;;
3997;SDS011;61314;53.444;9.902;2022-09-21T04:38:35;5.88;;;5.15;;
3997;SDS011;61314;53.444;9.902;2022-09-21T04:41:01;6.15;;;5.43;;
3997;SDS011;61314;53.444;9.902;2022-09-21T04:43:28;6.35;;;5.82;;
3997;SDS011;61314;53.444;9.902;2022-09-21T04:45:55;6.10;;;5.20;;
3997;SDS011;61314;53.444;9.902;2022-09-21T04:48:23;12.85;;;5.85;;
3997;SDS011;61314;53.444;9.902;2022-09-21T04:50:50;8.13;;;6.00;;
3997;SDS011;61314;53.444;9.902;2022-09-21T04:53:17;7.28;;;5.80;;
3997;SDS011;61314;53.444;9.902;2022-09-21T04:55:44;7.20;;;5.68;;
3997;SDS011;61314;53.444;9.902;2022-09-21T04:58:11;9.73;;;6.43;;
3997;SDS011;61314;53.444;9.902;2022-09-21T05:00:38;6.80;;;4.97;;
3997;SDS011;61314;53.444;9.902;2022-09-21T05:03:05;5.75;;;5.32;;
3997;SDS011;61314;53.444;9.902;2022-09-21T05:05:32;7.85;;;6.60;;
3997;SDS011;61314;53.444;9.902;2022-09-21T05:07:59;9.63;;;5.82;;
3997;SDS011;61314;53.444;9.902;2022-09-21T05:10:26;6.97;;;6.28;;
3997;SDS011;61314;53.444;9.902;2022-09-21T05:12:53;8.48;;;6.10;;
3997;SDS011;61314;53.444;9.902;2022-09-21T05:15:20;7.85;;;6.82;;
3997;SDS011;61314;53.444;9.902;2022-09-21T05:17:47;10.02;;;7.00;;
3997;SDS011;61314;53.444;9.902;2022-09-21T05:20:14;9.85;;;6.57;;
3997;SDS011;61314;53.444;9.902;2022-09-21T05:22:41;12.32;;;8.25;;
3997;SDS011;61314;53.444;9.902;2022-09-21T05:25:08;8.32;;;7.50;;
3997;SDS011;61314;53.444;9.902;2022-09-21T05:27:35;8.20;;;7.38;;
3997;SDS011;61314;53.444;9.902;2022-09-21T05:30:03;9.65;;;8.40;;
3997;SDS011;61314;53.444;9.902;2022-09-21T05:32:41;12.07;;;8.50;;
3997;SDS011;61314;53.444;9.902;2022-09-21T05:38:00;10.30;;;8.20;;
3997;SDS011;61314;53.444;9.902;2022-09-21T05:40:29;14.20;;;6.78;;
3997;SDS011;61314;53.444;9.902;2022-09-21T05:42:57;7.80;;;7.00;;
3997;SDS011;61314;53.444;9.902;2022-09-21T05:45:24;9.10;;;6.88;;
3997;SDS011;61314;53.444;9.902;2022-09-21T05:47:55;6.65;;;5.50;;
3997;SDS011;61314;53.444;9.902;2022-09-21T05:58:20;8.40;;;6.65;;
3997;SDS011;61314;53.444;9.902;2022-09-21T06:01:08;8.38;;;7.68;;
3997;SDS011;61314;53.444;9.902;2022-09-21T06:03:39;8.02;;;6.85;;
3997;SDS011;61314;53.444;9.902;2022-09-21T06:06:08;7.60;;;6.30;;
3997;SDS011;61314;53.444;9.902;2022-09-21T06:08:35;7.97;;;6.90;;
3997;SDS011;61314;53.444;9.902;2022-09-21T06:11:02;9.05;;;7.57;;
3997;SDS011;61314;53.444;9.902;2022-09-21T06:13:29;10.23;;;7.68;;
3997;SDS011;61314;53.444;9.902;2022-09-21T06:15:56;7.53;;;6.47;;
3997;SDS011;61314;53.444;9.902;2022-09-21T06:18:26;9.00;;;7.40;;
3997;SDS011;61314;53.444;9.902;2022-09-21T06:20:54;14.85;;;9.23;;
3997;SDS011;61314;53.444;9.902;2022-09-21T06:23:21;15.77;;;10.32;;
3997;SDS011;61314;53.444;9.902;2022-09-21T06:25:51;14.82;;;11.75;;
3997;SDS011;61314;53.444;9.902;2022-09-21T06:28:23;22.52;;;10.80;;
3997;SDS011;61314;53.444;9.902;2022-09-21T06:30:52;12.85;;;10.65;;
3997;SDS011;61314;53.444;9.902;2022-09-21T06:33:19;13.43;;;9.52;;
3997;SDS011;61314;53.444;9.902;2022-09-21T06:35:52;11.30;;;8.52;;
3997;SDS011;61314;53.444;9.902;2022-09-21T06:38:19;11.13;;;8.75;;
3997;SDS011;61314;53.444;9.902;2022-09-21T06:40:46;15.90;;;8.60;;
3997;SDS011;61314;53.444;9.902;2022-09-21T06:43:13;9.25;;;8.10;;
3997;SDS011;61314;53.444;9.902;2022-09-21T06:45:40;11.90;;;7.93;;
3997;SDS011;61314;53.444;9.902;2022-09-21T06:48:07;14.02;;;7.20;;
3997;SDS011;61314;53.444;9.902;2022-09-21T06:50:35;14.80;;;8.35;;
3997;SDS011;61314;53.444;9.902;2022-09-21T06:53:02;10.20;;;7.20;;
3997;SDS011;61314;53.444;9.902;2022-09-21T06:55:29;7.82;;;6.13;;
3997;SDS011;61314;53.444;9.902;2022-09-21T06:58:03;5.63;;;5.15;;
3997;SDS011;61314;53.444;9.902;2022-09-21T07:00:30;13.13;;;5.55;;
3997;SDS011;61314;53.444;9.902;2022-09-21T07:02:57;13.23;;;5.43;;
3997;SDS011;61314;53.444;9.902;2022-09-21T07:05:24;7.85;;;5.25;;
3997;SDS011;61314;53.444;9.902;2022-09-21T07:07:57;9.02;;;4.90;;
3997;SDS011;61314;53.444;9.902;2022-09-21T07:10:25;6.50;;;4.50;;
3997;SDS011;61314;53.444;9.902;2022-09-21T07:12:52;6.78;;;4.85;;
3997;SDS011;61314;53.444;9.902;2022-09-21T07:15:19;10.55;;;5.88;;
3997;SDS011;61314;53.444;9.902;2022-09-21T07:17:46;12.57;;;5.60;;
3997;SDS011;61314;53.444;9.902;2022-09-21T07:20:17;8.35;;;5.20;;
3997;SDS011;61314;53.444;9.902;2022-09-21T07:22:45;13.27;;;5.65;;
3997;SDS011;61314;53.444;9.902;2022-09-21T07:25:12;8.45;;;5.68;;
3997;SDS011;61314;53.444;9.902;2022-09-21T07:27:39;12.38;;;5.05;;
3997;SDS011;61314;53.444;9.902;2022-09-21T07:30:06;15.93;;;6.22;;
3997;SDS011;61314;53.444;9.902;2022-09-21T07:32:34;10.48;;;6.30;;
3997;SDS011;61314;53.444;9.902;2022-09-21T07:35:01;9.23;;;7.07;;
3997;SDS011;61314;53.444;9.902;2022-09-21T07:37:29;15.68;;;7.80;;
3997;SDS011;61314;53.444;9.902;2022-09-21T07:39:56;17.80;;;6.60;;
3997;SDS011;61314;53.444;9.902;2022-09-21T07:42:24;10.15;;;6.95;;
3997;SDS011;61314;53.444;9.902;2022-09-21T07:44:52;16.35;;;7.85;;
3997;SDS011;61314;53.444;9.902;2022-09-21T07:47:28;9.70;;;7.53;;
3997;SDS011;61314;53.444;9.902;2022-09-21T07:49:56;14.45;;;7.57;;
3997;SDS011;61314;53.444;9.902;2022-09-21T07:52:23;17.80;;;7.78;;
3997;SDS011;61314;53.444;9.902;2022-09-21T07:54:50;16.30;;;9.07;;
3997;SDS011;61314;53.444;9.902;2022-09-21T07:57:17;11.30;;;7.10;;
3997;SDS011;61314;53.444;9.902;2022-09-21T08:00:03;16.83;;;7.90;;
3997;SDS011;61314;53.444;9.902;2022-09-21T08:02:30;17.25;;;8.80;;
3997;SDS011;61314;53.444;9.902;2022-09-21T08:04:57;18.88;;;8.30;;
3997;SDS011;61314;53.444;9.902;2022-09-21T08:07:24;18.65;;;8.45;;
3997;SDS011;61314;53.444;9.902;2022-09-21T08:09:52;15.68;;;8.73;;
3997;SDS011;61314;53.444;9.902;2022-09-21T08:12:19;17.80;;;7.78;;
3997;SDS011;61314;53.444;9.902;2022-09-21T08:14:46;17.42;;;6.93;;
3997;SDS011;61314;53.444;9.902;2022-09-21T08:17:13;12.85;;;6.95;;
3997;SDS011;61314;53.444;9.902;2022-09-21T08:19:40;12.25;;;6.65;;
3997;SDS011;61314;53.444;9.902;2022-09-21T08:22:07;16.02;;;5.97;;
3997;SDS011;61314;53.444;9.902;2022-09-21T08:24:36;12.30;;;5.80;;
3997;SDS011;61314;53.444;9.902;2022-09-21T08:27:04;15.65;;;5.88;;
3997;SDS011;61314;53.444;9.902;2022-09-21T08:29:31;15.52;;;5.85;;
3997;SDS011;61314;53.444;9.902;2022-09-21T08:31:58;8.60;;;5.28;;
3997;SDS011;61314;53.444;9.902;2022-09-21T08:34:25;9.20;;;5.23;;
3997;SDS011;61314;53.444;9.902;2022-09-21T08:36:53;9.73;;;5.10;;
3997;SDS011;61314;53.444;9.902;2022-09-21T08:39:21;11.53;;;5.07;;
3997;SDS011;61314;53.444;9.902;2022-09-21T08:42:03;13.43;;;5.57;;
3997;SDS011;61314;53.444;9.902;2022-09-21T08:44:37;9.13;;;4.90;;
3997;SDS011;61314;53.444;9.902;2022-09-21T08:47:11;7.80;;;4.90;;
3997;SDS011;61314;53.444;9.902;2022-09-21T08:49:39;10.77;;;4.47;;
3997;SDS011;61314;53.444;9.902;2022-09-21T08:52:10;12.07;;;4.67;;
3997;SDS011;61314;53.444;9.902;2022-09-21T08:57:18;5.53;;;3.80;;
3997;SDS011;61314;53.444;9.902;2022-09-21T08:59:46;7.70;;;3.10;;
3997;SDS011;61314;53.444;9.902;2022-09-21T09:02:25;8.60;;;2.80;;
3997;SDS011;61314;53.444;9.902;2022-09-21T09:07:48;4.17;;;2.80;;
3997;SDS011;61314;53.444;9.902;2022-09-21T09:10:37;4.30;;;2.77;;
3997;SDS011;61314;53.444;9.902;2022-09-21T09:13:22;1.67;;;1.33;;
3997;SDS011;61314;53.444;9.902;2022-09-21T09:15:56;5.13;;;1.83;;
3997;SDS011;61314;53.444;9.902;2022-09-21T09:18:37;6.80;;;2.00;;
3997;SDS011;61314;53.444;9.902;2022-09-21T09:21:10;2.87;;;1.60;;
3997;SDS011;61314;53.444;9.902;2022-09-21T09:23:52;3.43;;;3.00;;
3997;SDS011;61314;53.444;9.902;2022-09-21T09:26:28;5.53;;;2.07;;
3997;SDS011;61314;53.444;9.902;2022-09-21T09:28:59;1.93;;;1.63;;
3997;SDS011;61314;53.444;9.902;2022-09-21T09:31:29;7.33;;;2.10;;
3997;SDS011;61314;53.444;9.902;2022-09-21T09:33:59;2.57;;;1.87;;
3997;SDS011;61314;53.444;9.902;2022-09-21T09:36:28;3.87;;;1.30;;
3997;SDS011;61314;53.444;9.902;2022-09-21T09:39:18;5.20;;;2.03;;
3997;SDS011;61314;53.444;9.902;2022-09-21T09:44:24;3.50;;;1.43;;
3997;SDS011;61314;53.444;9.902;2022-09-21T09:47:09;3.17;;;1.60;;
3997;SDS011;61314;53.444;9.902;2022-09-21T09:52:24;3.90;;;1.67;;
3997;SDS011;61314;53.444;9.902;2022-09-21T09:54:51;8.03;;;1.93;;
3997;SDS011;61314;53.444;9.902;2022-09-21T09:57:25;3.03;;;1.80;;
3997;SDS011;61314;53.444;9.902;2022-09-21T09:59:54;3.30;;;1.30;;
3997;SDS011;61314;53.444;9.902;2022-09-21T10:02:24;3.07;;;1.10;;
3997;SDS011;61314;53.444;9.902;2022-09-21T10:04:55;2.40;;;1.53;;
3997;SDS011;61314;53.444;9.902;2022-09-21T10:07:33;2.60;;;1.00;;
3997;SDS011;61314;53.444;9.902;2022-09-21T10:10:00;9.43;;;1.20;;
3997;SDS011;61314;53.444;9.902;2022-09-21T10:12:27;4.27;;;1.40;;
3997;SDS011;61314;53.444;9.902;2022-09-21T10:14:55;2.23;;;1.17;;
3997;SDS011;61314;53.444;9.902;2022-09-21T10:17:25;3.70;;;1.30;;
3997;SDS011;61314;53.444;9.902;2022-09-21T10:19:58;2.30;;;2.10;;
3997;SDS011;61314;53.444;9.902;2022-09-21T10:22:26;2.30;;;1.37;;
3997;SDS011;61314;53.444;9.902;2022-09-21T10:24:54;3.10;;;1.00;;
3997;SDS011;61314;53.444;9.902;2022-09-21T10:27:27;2.60;;;1.00;;
3997;SDS011;61314;53.444;9.902;2022-09-21T10:29:55;9.43;;;1.10;;
3997;SDS011;61314;53.444;9.902;2022-09-21T10:32:28;1.80;;;0.93;;
3997;SDS011;61314;53.444;9.902;2022-09-21T10:37:38;1.97;;;0.73;;
3997;SDS011;61314;53.444;9.902;2022-09-21T10:42:50;4.10;;;1.10;;
3997;SDS011;61314;53.444;9.902;2022-09-21T10:45:19;4.00;;;1.30;;
3997;SDS011;61314;53.444;9.902;2022-09-21T10:47:47;3.83;;;1.10;;
3997;SDS011;61314;53.444;9.902;2022-09-21T10:50:34;2.93;;;1.30;;
3997;SDS011;61314;53.444;9.902;2022-09-21T10:55:32;4.70;;;1.30;;
3997;SDS011;61314;53.444;9.902;2022-09-21T10:58:10;4.50;;;1.80;;
3997;SDS011;61314;53.444;9.902;2022-09-21T11:00:41;2.53;;;0.73;;
3997;SDS011;61314;53.444;9.902;2022-09-21T11:03:25;2.13;;;1.20;;
3997;SDS011;61314;53.444;9.902;2022-09-21T11:05:54;2.80;;;0.87;;
3997;SDS011;61314;53.444;9.902;2022-09-21T11:08:23;3.90;;;0.93;;
3997;SDS011;61314;53.444;9.902;2022-09-21T11:21:19;2.53;;;0.93;;
3997;SDS011;61314;53.444;9.902;2022-09-21T11:24:04;3.17;;;1.20;;
3997;SDS011;61314;53.444;9.902;2022-09-21T11:26:43;4.07;;;1.40;;
3997;SDS011;61314;53.444;9.902;2022-09-21T11:29:17;4.23;;;1.20;;
3997;SDS011;61314;53.444;9.902;2022-09-21T11:31:49;1.63;;;0.83;;
3997;SDS011;61314;53.444;9.902;2022-09-21T11:34:23;5.10;;;0.70;;
3997;SDS011;61314;53.444;9.902;2022-09-21T11:37:02;1.97;;;0.70;;
3997;SDS011;61314;53.444;9.902;2022-09-21T11:44:51;4.03;;;1.00;;
3997;SDS011;61314;53.444;9.902;2022-09-21T11:49:58;2.13;;;0.60;;
3997;SDS011;61314;53.444;9.902;2022-09-21T11:52:57;2.70;;;0.60;;
3997;SDS011;61314;53.444;9.902;2022-09-21T11:55:35;2.50;;;1.20;;
3997;SDS011;61314;53.444;9.902;2022-09-21T11:58:20;1.00;;;0.63;;
3997;SDS011;61314;53.444;9.902;2022-09-21T12:00:53;2.53;;;1.07;;
3997;SDS011;61314;53.444;9.902;2022-09-21T12:06:13;4.47;;;1.07;;
3997;SDS011;61314;53.444;9.902;2022-09-21T12:08:48;1.40;;;1.07;;
3997;SDS011;61314;53.444;9.902;2022-09-21T12:14:06;2.10;;;0.60;;
3997;SDS011;61314;53.444;9.902;2022-09-21T12:19:14;3.20;;;1.00;;
3997;SDS011;61314;53.444;9.902;2022-09-21T12:21:46;1.83;;;1.20;;
3997;SDS011;61314;53.444;9.902;2022-09-21T12:24:16;3.47;;;1.07;;
3997;SDS011;61314;53.444;9.902;2022-09-21T12:26:46;2.07;;;0.67;;
3997;SDS011;61314;53.444;9.902;2022-09-21T12:29:19;1.20;;;0.70;;
3997;SDS011;61314;53.444;9.902;2022-09-21T12:32:38;3.00;;;0.80;;
3997;SDS011;61314;53.444;9.902;2022-09-21T12:34:39;2.50;;;0.80;;
3997;SDS011;61314;53.444;9.902;2022-09-21T12:37:08;1.27;;;0.70;;
3997;SDS011;61314;53.444;9.902;2022-09-21T12:42:23;5.03;;;0.60;;
3997;SDS011;61314;53.444;9.902;2022-09-21T12:44:57;2.10;;;0.77;;
3997;SDS011;61314;53.444;9.902;2022-09-21T12:50:15;1.17;;;0.67;;
3997;SDS011;61314;53.444;9.902;2022-09-21T12:52:46;1.10;;;0.60;;
3997;SDS011;61314;53.444;9.902;2022-09-21T12:55:26;1.00;;;0.70;;
3997;SDS011;61314;53.444;9.902;2022-09-21T13:00:48;1.03;;;0.63;;
3997;SDS011;61314;53.444;9.902;2022-09-21T13:08:32;1.40;;;0.50;;
3997;SDS011;61314;53.444;9.902;2022-09-21T13:11:03;1.83;;;0.70;;
3997;SDS011;61314;53.444;9.902;2022-09-21T13:13:37;1.40;;;0.73;;
3997;SDS011;61314;53.444;9.902;2022-09-21T13:16:05;1.97;;;1.03;;
3997;SDS011;61314;53.444;9.902;2022-09-21T13:18:33;1.10;;;0.73;;
3997;SDS011;61314;53.444;9.902;2022-09-21T13:23:41;2.80;;;1.00;;
3997;SDS011;61314;53.444;9.902;2022-09-21T13:26:09;1.20;;;0.60;;
3997;SDS011;61314;53.444;9.902;2022-09-21T13:34:38;1.10;;;0.60;;
3997;SDS011;61314;53.444;9.902;2022-09-21T13:37:12;1.33;;;0.57;;
3997;SDS011;61314;53.444;9.902;2022-09-21T13:44:56;3.63;;;0.60;;
3997;SDS011;61314;53.444;9.902;2022-09-21T13:47:27;1.43;;;0.70;;
3997;SDS011;61314;53.444;9.902;2022-09-21T13:49:55;1.57;;;0.60;;
3997;SDS011;61314;53.444;9.902;2022-09-21T13:52:27;1.10;;;0.60;;
3997;SDS011;61314;53.444;9.902;2022-09-21T13:54:59;1.10;;;0.60;;
3997;SDS011;61314;53.444;9.902;2022-09-21T13:57:46;1.20;;;0.50;;
3997;SDS011;61314;53.444;9.902;2022-09-21T14:02:45;5.77;;;0.70;;
3997;SDS011;61314;53.444;9.902;2022-09-21T14:05:29;1.00;;;0.60;;
3997;SDS011;61314;53.444;9.902;2022-09-21T14:08:16;2.23;;;0.67;;
3997;SDS011;61314;53.444;9.902;2022-09-21T14:10:51;5.60;;;0.60;;
3997;SDS011;61314;53.444;9.902;2022-09-21T14:13:36;1.30;;;0.70;;
3997;SDS011;61314;53.444;9.902;2022-09-21T14:18:49;1.00;;;0.60;;
3997;SDS011;61314;53.444;9.902;2022-09-21T14:21:17;1.10;;;0.57;;
3997;SDS011;61314;53.444;9.902;2022-09-21T14:26:32;1.60;;;0.70;;
3997;SDS011;61314;53.444;9.902;2022-09-21T14:31:46;2.20;;;0.80;;
3997;SDS011;61314;53.444;9.902;2022-09-21T14:34:14;1.30;;;0.70;;
3997;SDS011;61314;53.444;9.902;2022-09-21T14:36:45;1.20;;;0.77;;
3997;SDS011;61314;53.444;9.902;2022-09-21T14:39:18;1.60;;;0.90;;
3997;SDS011;61314;53.444;9.902;2022-09-21T14:41:47;1.30;;;0.80;;
3997;SDS011;61314;53.444;9.902;2022-09-21T14:44:16;1.57;;;0.50;;
3997;SDS011;61314;53.444;9.902;2022-09-21T14:52:23;4.60;;;0.70;;
3997;SDS011;61314;53.444;9.902;2022-09-21T15:00:20;1.33;;;0.97;;
3997;SDS011;61314;53.444;9.902;2022-09-21T15:03:17;7.87;;;0.70;;
3997;SDS011;61314;53.444;9.902;2022-09-21T15:05:41;3.40;;;0.83;;
3997;SDS011;61314;53.444;9.902;2022-09-21T15:08:13;5.13;;;0.90;;
3997;SDS011;61314;53.444;9.902;2022-09-21T15:11:14;2.67;;;0.70;;
3997;SDS011;61314;53.444;9.902;2022-09-21T15:13:57;1.00;;;0.70;;
3997;SDS011;61314;53.444;9.902;2022-09-21T15:16:37;1.20;;;0.90;;
3997;SDS011;61314;53.444;9.902;2022-09-21T15:21:45;1.53;;;0.90;;
3997;SDS011;61314;53.444;9.902;2022-09-21T15:24:17;1.50;;;0.60;;
3997;SDS011;61314;53.444;9.902;2022-09-21T15:26:48;2.60;;;0.80;;
3997;SDS011;61314;53.444;9.902;2022-09-21T15:29:23;1.30;;;0.57;;
3997;SDS011;61314;53.444;9.902;2022-09-21T15:31:51;1.40;;;0.70;;
3997;SDS011;61314;53.444;9.902;2022-09-21T15:34:18;2.30;;;0.80;;
3997;SDS011;61314;53.444;9.902;2022-09-21T15:36:45;1.83;;;0.50;;
3997;SDS011;61314;53.444;9.902;2022-09-21T15:39:26;1.80;;;1.07;;
3997;SDS011;61314;53.444;9.902;2022-09-21T15:41:57;1.00;;;0.60;;
3997;SDS011;61314;53.444;9.902;2022-09-21T15:44:31;1.40;;;1.00;;
3997;SDS011;61314;53.444;9.902;2022-09-21T15:46:59;3.40;;;1.20;;
3997;SDS011;61314;53.444;9.902;2022-09-21T15:49:28;1.00;;;0.70;;
3997;SDS011;61314;53.444;9.902;2022-09-21T15:51:57;1.40;;;0.83;;
3997;SDS011;61314;53.444;9.902;2022-09-21T15:54:30;1.33;;;0.73;;
3997;SDS011;61314;53.444;9.902;2022-09-21T15:57:00;1.63;;;0.90;;
3997;SDS011;61314;53.444;9.902;2022-09-21T15:59:33;2.93;;;0.83;;
3997;SDS011;61314;53.444;9.902;2022-09-21T16:02:08;4.50;;;0.90;;
3997;SDS011;61314;53.444;9.902;2022-09-21T16:04:36;1.20;;;0.97;;
3997;SDS011;61314;53.444;9.902;2022-09-21T16:09:59;1.30;;;0.80;;
3997;SDS011;61314;53.444;9.902;2022-09-21T16:15:02;2.33;;;0.83;;
3997;SDS011;61314;53.444;9.902;2022-09-21T16:17:34;1.60;;;0.70;;
3997;SDS011;61314;53.444;9.902;2022-09-21T16:20:10;2.00;;;0.90;;
3997;SDS011;61314;53.444;9.902;2022-09-21T16:22:41;2.80;;;1.10;;
3997;SDS011;61314;53.444;9.902;2022-09-21T16:27:49;2.33;;;0.77;;
3997;SDS011;61314;53.444;9.902;2022-09-21T16:30:36;1.63;;;0.90;;
3997;SDS011;61314;53.444;9.902;2022-09-21T16:35:51;3.17;;;0.80;;
3997;SDS011;61314;53.444;9.902;2022-09-21T16:38:18;1.70;;;0.70;;
3997;SDS011;61314;53.444;9.902;2022-09-21T16:40:48;1.47;;;1.00;;
3997;SDS011;61314;53.444;9.902;2022-09-21T16:43:18;1.50;;;1.10;;
3997;SDS011;61314;53.444;9.902;2022-09-21T16:45:48;7.20;;;1.70;;
3997;SDS011;61314;53.444;9.902;2022-09-21T16:48:15;2.17;;;2.07;;
3997;SDS011;61314;53.444;9.902;2022-09-21T16:50:43;4.90;;;4.00;;
3997;SDS011;61314;53.444;9.902;2022-09-21T16:53:11;8.30;;;6.57;;
3997;SDS011;61314;53.444;9.902;2022-09-21T16:55:40;11.80;;;8.03;;
3997;SDS011;61314;53.444;9.902;2022-09-21T16:58:08;12.37;;;9.17;;
3997;SDS011;61314;53.444;9.902;2022-09-21T17:00:37;19.03;;;13.17;;
3997;SDS011;61314;53.444;9.902;2022-09-21T17:03:05;17.83;;;14.70;;
3997;SDS011;61314;53.444;9.902;2022-09-21T17:05:32;12.10;;;10.90;;
3997;SDS011;61314;53.444;9.902;2022-09-21T17:07:59;15.67;;;12.73;;
3997;SDS011;61314;53.444;9.902;2022-09-21T17:10:36;10.90;;;9.70;;
3997;SDS011;61314;53.444;9.902;2022-09-21T17:13:04;8.60;;;7.53;;
3997;SDS011;61314;53.444;9.902;2022-09-21T17:15:32;10.00;;;7.70;;
3997;SDS011;61314;53.444;9.902;2022-09-21T17:18:01;10.37;;;7.60;;
3997;SDS011;61314;53.444;9.902;2022-09-21T17:20:30;15.50;;;12.10;;
3997;SDS011;61314;53.444;9.902;2022-09-21T17:22:58;22.50;;;17.13;;
3997;SDS011;61314;53.444;9.902;2022-09-21T17:25:28;23.20;;;17.63;;
3997;SDS011;61314;53.444;9.902;2022-09-21T17:27:55;24.20;;;19.50;;